Aeroporto :
LOGIN :

Iscrizione | Disclaimer

   EN    FR    IT 

 










Sommario :    VFR   VFR Marginale   IFR   IFR Intensivo   IFR Molto Intensivo
Visibilità : 
Base nubi : 
>= 8 km
>= 3000ft
5 / 8 km
1000 / 3000 ft
1500m / 5 km
500 / 1000 ft
800 / 1500m
200 / 500 ft
< 800m
< 200 ft
Simboli :   Temporali  Nebbia  Neve Forte  Precipitazioni Forti  Vento > 20 kt
SIGMETs :   Varie  Temporali  Ghiacco  Turbolenza  Onda orograficha  Ceneri Vulcaniche






- Altitudine del aeroporto : 46 ft
- Codice IATA : SNN


EINN - Shannon

ULTIMO METAR :
  • 230000Z 14007KT 8000 -RA SCT014 BKN030 07/07 Q1009 NOSIG

METARs OBSOLETI :
  • 222330Z 17009KT 9999 -RA SCT013 BKN034 07/07 Q1010 NOSIG
  • 222300Z 18008KT 9999 -RA SCT013 BKN032 07/07 Q1012 NOSIG
  • 222230Z 17009KT 9999 -RA BKN013 BKN032 07/07 Q1012 NOSIG
  • 222200Z 18009KT 9999 -RA FEW008 BKN014 BKN024 07/06 Q1014 TEMPO BKN014

TAF TAF EINN
Valido dal 23 a 00 ore il 24 a 00 ore UTC


222300Z 2300/2324 17006KT 9999 -RA SCT012 BKN018
TEMPO 2300/2306 5000 RA BKN012
PROB30
TEMPO 2300/2304 2500 BKN007
BECMG 2304/2306 26011KT
BECMG 2306/2308 NSW FEW012 BKN018
TEMPO 2306/2309 5000 -RA BKN012
BECMG 2308/2310 31015G26KT
BECMG 2310/2312 31009KT
BECMG 2315/2317 18005KT
BECMG 2318/2320 13010KT -RA SCT008 BKN012
BECMG 2321/2323 13018G28KT
TEMPO 2321/2324 5000 RA BKN008
PROB30
TEMPO 2321/2324 3000 RASN BKN006



MetMap, La meteo Aeronautica in un colpo d'occhio ! - Copyright ORBIFLY Dicembre 2007 - Disclaimer

ORBIFLY MET'MAP TEAM :

Programmazione e sviluppo : Alexandra Zaïnal
Concezione : Baudouin d'Aumeries
Aiuto per la programmazione : Marc-Olivier Méhu
Supporto tecnico e logistico : Manuel Goepfert
Aiuto per la traduzione : Arnaldo La Scala

Contatto : metmap@orbifly.com




FONTI E CREDITI :

   NOAA